createdAt,value
2023-05-03T00:01:27.832Z,90.10
2023-05-03T00:03:55.857Z,90.10
2023-05-03T00:06:24.198Z,90.20
2023-05-03T00:08:52.330Z,90.30
2023-05-03T00:11:21.095Z,90.20
2023-05-03T00:13:49.129Z,90.30
2023-05-03T00:16:17.517Z,90.50
2023-05-03T00:18:48.441Z,90.60
2023-05-03T00:21:17.707Z,90.60
2023-05-03T00:23:45.737Z,90.60
2023-05-03T00:26:14.186Z,90.70
2023-05-03T00:28:43.129Z,90.70
2023-05-03T00:31:12.155Z,90.70
2023-05-03T00:33:40.770Z,90.70
2023-05-03T00:36:12.432Z,90.70
2023-05-03T00:38:40.866Z,90.80
2023-05-03T00:41:10.316Z,90.80
2023-05-03T00:43:39.245Z,90.80
2023-05-03T00:46:16.854Z,90.80
2023-05-03T00:48:46.734Z,90.80
2023-05-03T00:51:16.609Z,90.70
2023-05-03T00:53:45.126Z,90.80
2023-05-03T00:56:16.257Z,90.80
2023-05-03T00:58:45.046Z,90.90
2023-05-03T01:01:13.228Z,91.00
2023-05-03T01:03:43.107Z,91.10
2023-05-03T01:06:14.797Z,91.20
2023-05-03T01:08:48.206Z,91.30
2023-05-03T01:11:20.822Z,91.40
2023-05-03T01:13:51.823Z,91.50
2023-05-03T01:16:22.675Z,91.60
2023-05-03T01:18:52.198Z,91.60
2023-05-03T01:21:22.824Z,91.70
2023-05-03T01:23:56.415Z,92.20
2023-05-03T01:26:26.288Z,91.90
2023-05-03T01:28:54.715Z,92.00
2023-05-03T01:31:24.825Z,92.00
2023-05-03T01:34:01.966Z,92.10
2023-05-03T01:36:32.559Z,92.30
2023-05-03T01:39:05.206Z,92.40
2023-05-03T01:41:35.476Z,92.50
2023-05-03T01:44:04.190Z,92.50
2023-05-03T01:46:32.421Z,92.70
2023-05-03T01:49:01.021Z,92.90
2023-05-03T01:51:31.181Z,93.10
2023-05-03T01:53:59.619Z,93.20
2023-05-03T01:56:27.795Z,93.20
2023-05-03T01:58:57.690Z,93.20
2023-05-03T02:01:25.762Z,93.20
2023-05-03T02:03:54.223Z,93.20
2023-05-03T02:06:22.289Z,93.20
2023-05-03T02:08:50.797Z,93.10
2023-05-03T02:11:18.795Z,93.00
2023-05-03T02:13:49.436Z,93.00
2023-05-03T02:16:19.987Z,93.00
2023-05-03T02:18:48.540Z,93.10
2023-05-03T02:21:16.516Z,93.10
2023-05-03T02:23:44.899Z,93.20
2023-05-03T02:26:12.889Z,93.30
2023-05-03T02:28:41.199Z,93.40
2023-05-03T02:31:09.244Z,93.40
2023-05-03T02:33:40.084Z,93.50
2023-05-03T02:36:08.547Z,93.60
2023-05-03T02:38:37.009Z,93.60
2023-05-03T02:41:05.636Z,93.70
2023-05-03T02:43:33.987Z,93.70
2023-05-03T02:46:02.425Z,93.90
2023-05-03T02:48:30.842Z,94.00
2023-05-03T02:51:00.711Z,94.00
2023-05-03T02:53:29.275Z,94.20
2023-05-03T02:56:00.987Z,94.30
2023-05-03T02:58:29.925Z,94.30
2023-05-03T03:00:59.495Z,94.40
2023-05-03T03:03:31.041Z,94.40
2023-05-03T03:06:00.700Z,94.50
2023-05-03T03:08:30.332Z,94.70
2023-05-03T03:11:01.982Z,94.80
2023-05-03T03:13:30.526Z,94.70
2023-05-03T03:15:59.780Z,94.80
2023-05-03T03:18:28.690Z,94.90
2023-05-03T03:20:56.726Z,95.00
2023-05-03T03:23:26.186Z,94.90
2023-05-03T03:25:54.702Z,94.90
2023-05-03T03:28:22.680Z,95.00
2023-05-03T03:30:51.581Z,95.10
2023-05-03T03:33:25.427Z,95.20
2023-05-03T03:35:57.722Z,95.40
2023-05-03T03:38:32.448Z,95.60
2023-05-03T03:41:04.960Z,95.70
2023-05-03T03:43:33.354Z,95.80
2023-05-03T03:46:04.493Z,96.00
2023-05-03T03:48:32.692Z,96.10
2023-05-03T03:51:01.538Z,96.20
2023-05-03T03:53:38.309Z,96.30
2023-05-03T03:56:08.138Z,96.30
2023-05-03T03:58:36.276Z,96.30
2023-05-03T04:01:07.109Z,96.50
2023-05-03T04:03:35.318Z,96.60
2023-05-03T04:06:03.619Z,96.70
2023-05-03T04:08:32.002Z,96.90
2023-05-03T04:11:03.113Z,97.00
2023-05-03T04:13:36.918Z,97.10
2023-05-03T04:16:06.389Z,97.10
2023-05-03T04:18:35.708Z,97.20
2023-05-03T04:21:04.118Z,97.00
2023-05-03T04:23:32.727Z,97.20
2023-05-03T04:26:04.194Z,97.30
2023-05-03T04:28:35.667Z,97.40
2023-05-03T04:31:04.277Z,97.40
2023-05-03T04:33:34.014Z,97.40
2023-05-03T04:36:05.432Z,97.40
2023-05-03T04:38:35.215Z,97.40
2023-05-03T04:41:07.314Z,97.30
2023-05-03T04:43:35.384Z,97.30
2023-05-03T04:46:05.238Z,97.30
2023-05-03T04:48:33.275Z,97.10
2023-05-03T04:51:02.020Z,97.00
2023-05-03T04:53:31.216Z,96.80
2023-05-03T04:56:07.910Z,96.70
2023-05-03T04:58:39.096Z,96.40
2023-05-03T05:01:08.742Z,96.30
2023-05-03T05:03:36.931Z,96.20
2023-05-03T05:06:12.932Z,96.10
2023-05-03T05:08:42.888Z,96.10
2023-05-03T05:11:15.730Z,96.00
2023-05-03T05:13:43.820Z,96.10
2023-05-03T05:16:13.671Z,96.30
2023-05-03T05:18:45.312Z,96.20
2023-05-03T05:21:15.097Z,95.70
2023-05-03T05:23:43.731Z,95.40
2023-05-03T05:26:12.492Z,95.20
2023-05-03T05:28:42.948Z,94.90
2023-05-03T05:31:12.014Z,94.50
2023-05-03T05:33:40.654Z,93.80
2023-05-03T05:36:09.762Z,93.30
2023-05-03T05:38:38.454Z,92.90
2023-05-03T05:41:07.321Z,92.50
2023-05-03T05:43:35.982Z,92.10
2023-05-03T05:46:06.219Z,91.90
2023-05-03T05:48:34.621Z,91.70
2023-05-03T05:51:04.247Z,91.30
2023-05-03T05:53:32.266Z,90.90
2023-05-03T05:56:03.408Z,90.50
2023-05-03T05:58:33.726Z,90.30
2023-05-03T06:01:04.157Z,90.00
2023-05-03T06:03:36.852Z,89.70
2023-05-03T06:06:09.159Z,90.00
2023-05-03T06:08:38.016Z,90.20
2023-05-03T06:11:07.269Z,90.10
2023-05-03T06:13:38.537Z,88.50
2023-05-03T06:16:08.467Z,85.90
2023-05-03T06:18:38.967Z,83.30
2023-05-03T06:21:08.614Z,81.00
2023-05-03T06:23:37.825Z,77.50
2023-05-03T06:26:06.380Z,76.70
2023-05-03T06:28:34.764Z,75.40
2023-05-03T06:31:02.981Z,73.70
2023-05-03T06:33:33.238Z,72.40
2023-05-03T06:36:03.001Z,71.10
2023-05-03T06:38:31.018Z,70.20
2023-05-03T06:40:59.357Z,69.70
2023-05-03T06:43:27.351Z,68.90
2023-05-03T06:46:03.991Z,68.00
2023-05-03T06:48:32.125Z,66.30
2023-05-03T06:51:02.418Z,64.80
2023-05-03T06:53:30.731Z,64.40
2023-05-03T06:55:59.094Z,64.00
2023-05-03T06:58:27.105Z,63.50
2023-05-03T07:00:55.914Z,62.40
2023-05-03T07:03:24.890Z,62.50
2023-05-03T07:05:53.782Z,61.70
2023-05-03T07:08:23.177Z,61.00
2023-05-03T07:10:51.977Z,60.00
2023-05-03T07:13:20.054Z,59.90
2023-05-03T07:15:48.600Z,60.20
2023-05-03T07:18:16.648Z,59.60
2023-05-03T07:20:45.435Z,59.30
2023-05-03T07:23:13.416Z,59.20
2023-05-03T07:25:43.210Z,58.10
2023-05-03T07:28:11.189Z,57.50
2023-05-03T07:30:39.902Z,57.10
2023-05-03T07:33:08.295Z,56.70
2023-05-03T07:35:37.204Z,56.50
2023-05-03T07:38:05.208Z,56.40
2023-05-03T07:40:34.117Z,56.30
2023-05-03T07:43:03.504Z,56.10
2023-05-03T07:45:31.651Z,55.70
2023-05-03T07:47:59.796Z,55.90
2023-05-03T07:50:28.354Z,56.60
2023-05-03T07:52:56.623Z,56.40
2023-05-03T07:55:25.447Z,56.40
2023-05-03T07:57:58.475Z,56.00
2023-05-03T08:00:28.458Z,55.20
2023-05-03T08:02:57.052Z,55.10
2023-05-03T08:05:25.328Z,54.80
2023-05-03T08:07:53.714Z,54.90
2023-05-03T08:10:22.553Z,54.60
2023-05-03T08:12:50.940Z,54.70
2023-05-03T08:15:19.325Z,54.90
2023-05-03T08:17:48.703Z,54.60
2023-05-03T08:20:17.272Z,54.70
2023-05-03T08:22:46.514Z,54.90
2023-05-03T08:25:16.963Z,54.80
2023-05-03T08:27:45.526Z,54.70
2023-05-03T08:30:14.106Z,54.90
2023-05-03T08:32:42.472Z,54.40
2023-05-03T08:35:14.056Z,54.00
2023-05-03T08:37:42.167Z,54.50
2023-05-03T08:40:12.450Z,54.20
2023-05-03T08:42:41.492Z,54.60
2023-05-03T08:45:11.793Z,54.30
2023-05-03T08:47:41.220Z,53.50
2023-05-03T08:50:10.110Z,53.80
2023-05-03T08:52:40.794Z,54.20
2023-05-03T08:55:09.611Z,54.50
2023-05-03T08:57:37.842Z,54.80
2023-05-03T09:00:10.979Z,55.50
2023-05-03T09:02:40.146Z,55.50
2023-05-03T09:05:24.020Z,55.40
2023-05-03T09:08:03.642Z,55.10
2023-05-03T09:10:32.514Z,54.80
2023-05-03T09:13:01.202Z,55.00
2023-05-03T09:15:30.965Z,55.30
2023-05-03T09:18:12.503Z,54.90
2023-05-03T09:20:41.964Z,54.40
2023-05-03T09:23:11.576Z,54.30
2023-05-03T09:25:44.005Z,54.80
2023-05-03T09:28:12.055Z,55.40
2023-05-03T09:30:40.738Z,55.20
2023-05-03T09:33:09.106Z,54.60
2023-05-03T09:35:37.761Z,54.10
2023-05-03T09:38:06.237Z,53.70
2023-05-03T09:40:37.393Z,54.80
2023-05-03T09:43:12.317Z,55.00
2023-05-03T09:45:41.037Z,55.20
2023-05-03T09:48:09.981Z,55.40
2023-05-03T09:50:38.900Z,55.30
2023-05-03T09:53:08.375Z,55.10
2023-05-03T09:55:39.556Z,55.30
2023-05-03T09:58:08.089Z,55.40
2023-05-03T10:00:37.929Z,54.50
2023-05-03T10:03:08.349Z,54.10
2023-05-03T10:05:40.129Z,54.70
2023-05-03T10:08:08.434Z,55.40
2023-05-03T10:10:36.832Z,55.20
2023-05-03T10:13:06.642Z,55.60
2023-05-03T10:15:37.530Z,55.70
2023-05-03T10:18:07.834Z,56.00
2023-05-03T10:20:40.576Z,55.90
2023-05-03T10:23:09.049Z,55.50
2023-05-03T10:25:39.396Z,55.60
2023-05-03T10:28:09.549Z,55.50
2023-05-03T10:30:39.122Z,55.70
2023-05-03T10:33:22.167Z,55.50
2023-05-03T10:35:53.193Z,55.00
2023-05-03T10:38:21.947Z,55.80
2023-05-03T10:40:50.787Z,55.60
2023-05-03T10:43:37.362Z,56.00
2023-05-03T10:46:08.144Z,56.30
2023-05-03T10:51:37.621Z,56.40
2023-05-03T10:54:05.733Z,55.80
2023-05-03T10:56:34.063Z,55.40
2023-05-03T10:59:02.088Z,56.00
2023-05-03T11:01:32.481Z,55.80
2023-05-03T11:04:03.894Z,55.90
2023-05-03T11:06:34.041Z,55.80
2023-05-03T11:09:03.921Z,55.70
2023-05-03T11:11:32.666Z,54.90
2023-05-03T11:14:00.822Z,54.60
2023-05-03T11:16:29.750Z,54.60
2023-05-03T11:19:00.269Z,54.30
2023-05-03T11:21:29.118Z,54.20
2023-05-03T11:23:59.529Z,54.40
2023-05-03T11:26:27.985Z,54.50
2023-05-03T11:28:55.999Z,54.30
2023-05-03T11:31:24.805Z,54.40
2023-05-03T11:33:52.847Z,54.50
2023-05-03T11:36:22.979Z,54.80
2023-05-03T11:38:50.987Z,55.00
2023-05-03T11:41:19.595Z,55.50
2023-05-03T11:43:54.986Z,55.50
2023-05-03T11:46:27.806Z,56.10
2023-05-03T11:48:56.208Z,57.00
2023-05-03T11:51:27.555Z,57.20
2023-05-03T11:53:55.562Z,57.30
2023-05-03T11:56:24.261Z,57.50
2023-05-03T11:58:53.270Z,57.00
2023-05-03T12:01:23.362Z,56.60
2023-05-03T12:03:54.649Z,56.70
2023-05-03T12:06:24.076Z,57.30
2023-05-03T12:08:54.866Z,57.00
2023-05-03T12:11:27.396Z,56.40
2023-05-03T12:14:00.145Z,56.40
2023-05-03T12:16:29.126Z,56.60
2023-05-03T12:19:02.714Z,56.10
2023-05-03T12:21:54.303Z,55.90
2023-05-03T12:24:34.221Z,56.00
2023-05-03T12:27:03.776Z,56.40
2023-05-03T12:29:35.255Z,56.00
2023-05-03T12:32:05.002Z,55.20
2023-05-03T12:34:36.058Z,54.70
2023-05-03T12:37:06.356Z,54.50
2023-05-03T12:39:39.563Z,54.60
2023-05-03T12:42:09.697Z,54.80
2023-05-03T12:44:42.420Z,54.60
2023-05-03T12:47:16.144Z,54.30
2023-05-03T12:49:52.254Z,53.60
2023-05-03T12:52:37.277Z,53.00
2023-05-03T12:55:11.242Z,52.60
2023-05-03T12:57:42.035Z,53.00
2023-05-03T13:00:15.034Z,53.20
2023-05-03T13:05:30.722Z,54.30
2023-05-03T13:08:09.038Z,54.30
2023-05-03T13:10:41.092Z,53.70
2023-05-03T13:13:11.309Z,53.80
2023-05-03T13:15:39.783Z,52.50
2023-05-03T13:18:08.221Z,52.00
2023-05-03T13:20:37.023Z,51.70
2023-05-03T13:23:05.428Z,51.60
2023-05-03T13:25:33.379Z,51.30
2023-05-03T13:28:02.812Z,51.20
2023-05-03T13:30:30.875Z,50.80
2023-05-03T13:32:59.394Z,50.00
2023-05-03T13:35:27.341Z,49.30
2023-05-03T13:37:55.841Z,49.60
2023-05-03T13:40:24.672Z,49.80
2023-05-03T13:42:52.779Z,50.00
2023-05-03T13:45:22.253Z,49.70
2023-05-03T13:48:15.988Z,49.80
2023-05-03T13:50:38.737Z,49.80
2023-05-03T13:53:09.631Z,50.80
2023-05-03T13:55:37.628Z,52.60
2023-05-03T13:58:05.966Z,53.60
2023-05-03T14:00:35.376Z,54.30
2023-05-03T14:03:04.335Z,54.70
2023-05-03T14:05:32.441Z,55.40
2023-05-03T14:08:00.944Z,56.00
2023-05-03T14:10:28.950Z,56.50
2023-05-03T14:12:58.546Z,56.90
2023-05-03T14:15:26.546Z,56.90
2023-05-03T14:17:59.853Z,56.50
2023-05-03T14:20:30.215Z,56.90
2023-05-03T14:22:58.800Z,57.70
2023-05-03T14:25:27.277Z,58.00
2023-05-03T14:27:55.805Z,58.10
2023-05-03T14:30:23.856Z,57.90
2023-05-03T14:32:56.853Z,57.70
2023-05-03T14:35:26.895Z,58.10
2023-05-03T14:37:55.759Z,58.40
2023-05-03T14:40:23.915Z,58.50
2023-05-03T14:42:52.310Z,58.60
2023-05-03T14:45:20.335Z,58.20
2023-05-03T14:47:49.140Z,58.30
2023-05-03T14:50:17.541Z,58.50
2023-05-03T14:52:47.632Z,58.70
2023-05-03T14:55:16.365Z,58.60
2023-05-03T14:57:44.804Z,58.50
2023-05-03T15:00:15.121Z,58.40
2023-05-03T15:02:43.844Z,58.50
2023-05-03T15:05:12.794Z,58.40
2023-05-03T15:07:41.635Z,57.90
2023-05-03T15:10:11.487Z,58.10
2023-05-03T15:12:40.482Z,57.90
2023-05-03T15:15:09.633Z,57.80
2023-05-03T15:17:37.938Z,57.90
2023-05-03T15:20:06.956Z,58.30
2023-05-03T15:22:36.878Z,58.80
2023-05-03T15:25:05.874Z,59.20
2023-05-03T15:27:35.505Z,60.10
2023-05-03T15:30:04.274Z,60.70
2023-05-03T15:32:32.896Z,60.40
2023-05-03T15:35:00.896Z,60.40
2023-05-03T15:37:36.208Z,60.20
2023-05-03T15:40:05.583Z,60.40
2023-05-03T15:42:35.648Z,60.10
2023-05-03T15:45:03.707Z,60.10
2023-05-03T15:47:32.105Z,60.30
2023-05-03T15:50:00.238Z,60.60
2023-05-03T15:52:28.831Z,61.10
2023-05-03T15:54:56.864Z,61.00
2023-05-03T15:57:25.358Z,60.30
2023-05-03T15:59:55.355Z,60.40
2023-05-03T16:02:28.815Z,60.40
2023-05-03T16:04:57.087Z,60.10
2023-05-03T16:07:27.106Z,60.10
2023-05-03T16:09:55.136Z,60.20
2023-05-03T16:12:23.127Z,61.30
2023-05-03T16:14:51.291Z,60.40
2023-05-03T16:17:22.062Z,60.20
2023-05-03T16:19:50.082Z,60.40
2023-05-03T16:22:18.845Z,61.00
2023-05-03T16:24:47.470Z,60.90
2023-05-03T16:27:15.933Z,60.80
2023-05-03T16:29:43.901Z,60.80
2023-05-03T16:32:13.003Z,60.90
2023-05-03T16:34:42.391Z,61.20
2023-05-03T16:37:10.844Z,61.20
2023-05-03T16:39:38.894Z,61.50
2023-05-03T16:42:07.527Z,61.40
2023-05-03T16:44:35.561Z,61.90
2023-05-03T16:47:04.935Z,61.90
2023-05-03T16:49:33.952Z,62.10
2023-05-03T16:52:03.850Z,62.50
2023-05-03T16:54:32.325Z,62.70
2023-05-03T16:57:00.697Z,62.60
2023-05-03T16:59:29.541Z,62.70
2023-05-03T17:01:57.924Z,62.70
2023-05-03T17:04:26.403Z,63.10
2023-05-03T17:06:56.187Z,63.20
2023-05-03T17:09:25.980Z,63.20
2023-05-03T17:11:55.070Z,63.50
2023-05-03T17:14:23.167Z,63.50
2023-05-03T17:16:51.502Z,63.50
2023-05-03T17:19:19.842Z,63.60
2023-05-03T17:21:48.109Z,63.90
2023-05-03T17:24:16.463Z,64.10
2023-05-03T17:26:46.341Z,64.20
2023-05-03T17:29:15.013Z,63.90
2023-05-03T17:31:43.429Z,64.10
2023-05-03T17:34:11.669Z,64.20
2023-05-03T17:36:39.947Z,64.30
2023-05-03T17:39:08.285Z,64.30
2023-05-03T17:41:36.733Z,64.60
2023-05-03T17:44:06.148Z,65.00
2023-05-03T17:46:35.556Z,65.60
2023-05-03T17:49:03.735Z,64.90
2023-05-03T17:51:32.053Z,64.90
2023-05-03T17:54:00.244Z,64.80
2023-05-03T17:56:28.527Z,64.80
2023-05-03T17:58:56.953Z,64.90
2023-05-03T18:01:27.954Z,65.10
2023-05-03T18:03:56.175Z,65.40
2023-05-03T18:06:24.740Z,65.60
2023-05-03T18:08:53.106Z,65.50
2023-05-03T18:11:21.461Z,65.50
2023-05-03T18:13:49.804Z,65.80
2023-05-03T18:16:18.198Z,66.00
2023-05-03T18:18:48.123Z,66.10
2023-05-03T18:21:18.630Z,66.30
2023-05-03T18:23:47.514Z,66.40
2023-05-03T18:26:15.487Z,66.70
2023-05-03T18:28:43.935Z,66.80
2023-05-03T18:31:12.599Z,66.80
2023-05-03T18:33:41.084Z,66.90
2023-05-03T18:36:12.479Z,67.00
2023-05-03T18:38:41.852Z,67.00
2023-05-03T18:41:14.022Z,67.40
2023-05-03T18:43:42.756Z,67.40
2023-05-03T18:46:11.355Z,67.50
2023-05-03T18:48:39.733Z,67.60
2023-05-03T18:51:08.253Z,67.70
2023-05-03T18:53:37.953Z,67.80
2023-05-03T18:56:06.282Z,68.10
2023-05-03T18:58:34.571Z,68.30
2023-05-03T19:01:04.723Z,68.40
2023-05-03T19:03:33.614Z,68.60
2023-05-03T19:06:03.354Z,68.70
2023-05-03T19:08:32.159Z,68.80
2023-05-03T19:11:09.358Z,68.80
2023-05-03T19:13:37.697Z,68.80
2023-05-03T19:16:06.597Z,69.00
2023-05-03T19:18:37.127Z,69.10
2023-05-03T19:21:06.303Z,69.20
2023-05-03T19:23:34.313Z,69.20
2023-05-03T19:26:02.746Z,69.30
2023-05-03T19:28:32.294Z,69.40
2023-05-03T19:31:04.221Z,69.80
2023-05-03T19:33:32.323Z,70.10
2023-05-03T19:36:06.816Z,70.30
2023-05-03T19:38:36.133Z,70.50
2023-05-03T19:41:08.264Z,70.80
2023-05-03T19:43:37.691Z,70.90
2023-05-03T19:46:06.296Z,71.00
2023-05-03T19:48:34.862Z,71.10
2023-05-03T19:51:05.197Z,71.30
2023-05-03T19:53:34.124Z,71.70
2023-05-03T19:56:02.787Z,71.70
2023-05-03T19:58:32.008Z,71.80
2023-05-03T20:01:01.741Z,72.00
2023-05-03T20:03:30.145Z,72.10
2023-05-03T20:05:58.454Z,72.20
2023-05-03T20:08:27.493Z,72.30
2023-05-03T20:10:56.415Z,72.40
2023-05-03T20:13:27.315Z,72.50
2023-05-03T20:15:55.399Z,72.50
2023-05-03T20:18:25.595Z,72.70
2023-05-03T20:20:53.766Z,72.90
2023-05-03T20:23:22.757Z,73.10
2023-05-03T20:25:50.790Z,73.30
2023-05-03T20:28:19.870Z,73.20
2023-05-03T20:30:47.915Z,73.40
2023-05-03T20:33:16.000Z,73.70
2023-05-03T20:35:45.512Z,73.80
2023-05-03T20:38:14.293Z,74.10
2023-05-03T20:40:42.311Z,74.30
2023-05-03T20:43:11.017Z,74.40
2023-05-03T20:45:55.719Z,74.60
2023-05-03T20:48:24.673Z,74.80
2023-05-03T20:50:52.785Z,75.00
2023-05-03T20:53:21.540Z,75.20
2023-05-03T20:55:55.529Z,75.30
2023-05-03T20:58:23.967Z,75.60
2023-05-03T21:00:52.331Z,76.00
2023-05-03T21:03:24.480Z,76.00
2023-05-03T21:05:52.873Z,76.00
2023-05-03T21:08:21.670Z,76.20
2023-05-03T21:10:49.683Z,76.40
2023-05-03T21:13:18.532Z,76.50
2023-05-03T21:15:46.517Z,76.60
2023-05-03T21:18:14.751Z,76.30
2023-05-03T21:20:44.388Z,76.30
2023-05-03T21:23:12.521Z,76.20
2023-05-03T21:25:40.537Z,76.30
2023-05-03T21:28:09.376Z,76.30
2023-05-03T21:30:37.433Z,76.50
2023-05-03T21:33:06.140Z,76.70
2023-05-03T21:35:34.176Z,76.70
2023-05-03T21:38:04.669Z,76.70
2023-05-03T21:40:33.145Z,76.80
2023-05-03T21:43:01.953Z,77.10
2023-05-03T21:45:29.968Z,77.40
2023-05-03T21:47:58.078Z,77.60
2023-05-03T21:50:26.218Z,77.60
2023-05-03T21:52:54.565Z,77.70
2023-05-03T21:55:24.107Z,77.90
2023-05-03T21:57:52.487Z,78.00
2023-05-03T22:00:20.979Z,78.20
2023-05-03T22:02:50.223Z,78.10
2023-05-03T22:05:18.383Z,78.20
2023-05-03T22:07:48.705Z,78.40
2023-05-03T22:10:16.833Z,78.40
2023-05-03T22:12:46.939Z,78.30
2023-05-03T22:15:14.958Z,78.50
2023-05-03T22:17:43.657Z,78.60
2023-05-03T22:20:12.231Z,78.70
2023-05-03T22:22:40.868Z,79.00
2023-05-03T22:25:09.244Z,78.80
2023-05-03T22:27:38.204Z,78.90
2023-05-03T22:30:09.037Z,79.00
2023-05-03T22:32:37.771Z,78.90
2023-05-03T22:35:06.390Z,78.80
2023-05-03T22:37:34.938Z,79.10
2023-05-03T22:40:03.243Z,79.00
2023-05-03T22:42:31.939Z,79.10
2023-05-03T22:44:59.938Z,79.20
2023-05-03T22:47:30.177Z,79.20
2023-05-03T22:49:58.184Z,79.50
2023-05-03T22:52:26.670Z,79.30
2023-05-03T22:54:56.032Z,79.50
2023-05-03T22:57:24.069Z,79.40
2023-05-03T22:59:52.072Z,79.20
2023-05-03T23:02:20.961Z,79.30
2023-05-03T23:04:50.370Z,79.50
2023-05-03T23:07:19.366Z,79.50
2023-05-03T23:09:47.842Z,79.60
2023-05-03T23:12:16.805Z,79.60
2023-05-03T23:14:46.107Z,79.80
2023-05-03T23:17:15.492Z,80.00
2023-05-03T23:19:43.465Z,80.10
2023-05-03T23:22:13.244Z,80.20
2023-05-03T23:24:41.421Z,80.40
2023-05-03T23:27:11.311Z,80.50
2023-05-03T23:29:39.925Z,80.70
2023-05-03T23:32:08.864Z,81.00
2023-05-03T23:34:37.826Z,80.80
2023-05-03T23:37:06.120Z,80.90
2023-05-03T23:39:35.509Z,81.00
2023-05-03T23:42:03.970Z,81.00
2023-05-03T23:44:42.923Z,81.20
2023-05-03T23:47:19.106Z,81.20
2023-05-03T23:49:47.089Z,81.20
2023-05-03T23:52:17.026Z,81.40
2023-05-03T23:54:46.402Z,81.40
2023-05-03T23:57:14.767Z,81.50
2023-05-03T23:59:43.252Z,81.40
